sensor_id;sensor_type;location;lat;lon;timestamp;temperature;humidity
16441;DHT22;8330;-33.858;151.184;2023-08-06T00:02:14;16.60;99.90
16441;DHT22;8330;-33.858;151.184;2023-08-06T00:04:47;16.60;99.90
16441;DHT22;8330;-33.858;151.184;2023-08-06T00:07:18;16.70;99.90
16441;DHT22;8330;-33.858;151.184;2023-08-06T00:09:49;16.60;99.90
16441;DHT22;8330;-33.858;151.184;2023-08-06T00:12:19;16.60;99.90
16441;DHT22;8330;-33.858;151.184;2023-08-06T00:14:51;16.50;99.90
16441;DHT22;8330;-33.858;151.184;2023-08-06T00:17:23;16.50;99.90
16441;DHT22;8330;-33.858;151.184;2023-08-06T00:19:55;16.60;99.90
16441;DHT22;8330;-33.858;151.184;2023-08-06T00:22:32;16.70;99.90
16441;DHT22;8330;-33.858;151.184;2023-08-06T00:25:03;16.70;99.90
16441;DHT22;8330;-33.858;151.184;2023-08-06T00:27:34;16.80;99.90
16441;DHT22;8330;-33.858;151.184;2023-08-06T00:30:07;16.80;99.90
16441;DHT22;8330;-33.858;151.184;2023-08-06T00:32:38;16.70;99.90
16441;DHT22;8330;-33.858;151.184;2023-08-06T00:35:11;16.80;99.90
16441;DHT22;8330;-33.858;151.184;2023-08-06T00:37:42;16.80;99.90
16441;DHT22;8330;-33.858;151.184;2023-08-06T00:40:13;16.80;99.90
16441;DHT22;8330;-33.858;151.184;2023-08-06T00:42:43;16.90;99.90
16441;DHT22;8330;-33.858;151.184;2023-08-06T00:45:14;16.90;99.90
16441;DHT22;8330;-33.858;151.184;2023-08-06T00:47:45;17.00;99.90
16441;DHT22;8330;-33.858;151.184;2023-08-06T00:50:18;17.00;99.90
16441;DHT22;8330;-33.858;151.184;2023-08-06T00:52:50;17.00;99.90
16441;DHT22;8330;-33.858;151.184;2023-08-06T00:55:21;17.00;99.90
16441;DHT22;8330;-33.858;151.184;2023-08-06T00:57:52;17.00;99.90
16441;DHT22;8330;-33.858;151.184;2023-08-06T01:00:24;17.10;99.90
16441;DHT22;8330;-33.858;151.184;2023-08-06T01:02:55;17.20;99.90
16441;DHT22;8330;-33.858;151.184;2023-08-06T01:05:29;17.30;99.90
16441;DHT22;8330;-33.858;151.184;2023-08-06T01:08:10;17.30;99.90
16441;DHT22;8330;-33.858;151.184;2023-08-06T01:10:54;17.40;99.90
16441;DHT22;8330;-33.858;151.184;2023-08-06T01:13:35;17.40;99.90
16441;DHT22;8330;-33.858;151.184;2023-08-06T01:16:08;17.40;99.90
16441;DHT22;8330;-33.858;151.184;2023-08-06T01:18:41;17.40;99.90
16441;DHT22;8330;-33.858;151.184;2023-08-06T01:21:16;17.40;99.90
16441;DHT22;8330;-33.858;151.184;2023-08-06T01:23:47;17.30;99.90
16441;DHT22;8330;-33.858;151.184;2023-08-06T01:26:24;17.30;99.90
16441;DHT22;8330;-33.858;151.184;2023-08-06T01:29:02;17.40;99.90
16441;DHT22;8330;-33.858;151.184;2023-08-06T01:31:37;17.40;99.90
16441;DHT22;8330;-33.858;151.184;2023-08-06T01:34:13;17.50;99.90
16441;DHT22;8330;-33.858;151.184;2023-08-06T01:36:47;17.60;99.90
16441;DHT22;8330;-33.858;151.184;2023-08-06T01:39:18;17.70;99.90
16441;DHT22;8330;-33.858;151.184;2023-08-06T01:41:49;17.60;99.90
16441;DHT22;8330;-33.858;151.184;2023-08-06T01:44:20;17.60;99.90
16441;DHT22;8330;-33.858;151.184;2023-08-06T01:46:51;17.60;99.90
16441;DHT22;8330;-33.858;151.184;2023-08-06T01:49:22;17.60;99.90
16441;DHT22;8330;-33.858;151.184;2023-08-06T01:51:54;17.60;99.90
16441;DHT22;8330;-33.858;151.184;2023-08-06T01:54:25;17.60;99.90
16441;DHT22;8330;-33.858;151.184;2023-08-06T01:56:57;17.60;99.90
16441;DHT22;8330;-33.858;151.184;2023-08-06T01:59:28;17.70;99.90
16441;DHT22;8330;-33.858;151.184;2023-08-06T02:01:59;17.80;99.90
16441;DHT22;8330;-33.858;151.184;2023-08-06T02:04:29;17.70;99.90
16441;DHT22;8330;-33.858;151.184;2023-08-06T02:07:03;17.70;99.90
16441;DHT22;8330;-33.858;151.184;2023-08-06T02:09:34;17.80;99.90
16441;DHT22;8330;-33.858;151.184;2023-08-06T02:12:06;17.80;99.90
16441;DHT22;8330;-33.858;151.184;2023-08-06T02:14:37;17.90;99.90
16441;DHT22;8330;-33.858;151.184;2023-08-06T02:17:08;18.00;99.90
16441;DHT22;8330;-33.858;151.184;2023-08-06T02:19:38;18.00;99.90
16441;DHT22;8330;-33.858;151.184;2023-08-06T02:22:12;18.00;99.90
16441;DHT22;8330;-33.858;151.184;2023-08-06T02:24:43;18.10;99.90
16441;DHT22;8330;-33.858;151.184;2023-08-06T02:27:14;18.10;99.90
16441;DHT22;8330;-33.858;151.184;2023-08-06T02:29:45;18.00;99.90
16441;DHT22;8330;-33.858;151.184;2023-08-06T02:32:16;18.00;99.90
16441;DHT22;8330;-33.858;151.184;2023-08-06T02:34:46;18.10;99.90
16441;DHT22;8330;-33.858;151.184;2023-08-06T02:37:19;18.10;99.90
16441;DHT22;8330;-33.858;151.184;2023-08-06T02:39:50;18.10;99.90
16441;DHT22;8330;-33.858;151.184;2023-08-06T02:42:21;18.10;99.90
16441;DHT22;8330;-33.858;151.184;2023-08-06T02:44:54;18.10;99.90
16441;DHT22;8330;-33.858;151.184;2023-08-06T02:47:25;18.20;99.90
16441;DHT22;8330;-33.858;151.184;2023-08-06T02:49:56;18.10;99.90
16441;DHT22;8330;-33.858;151.184;2023-08-06T02:52:28;18.10;99.90
16441;DHT22;8330;-33.858;151.184;2023-08-06T02:54:59;18.20;99.90
16441;DHT22;8330;-33.858;151.184;2023-08-06T02:57:30;18.20;99.90
16441;DHT22;8330;-33.858;151.184;2023-08-06T03:00:01;18.20;99.90
16441;DHT22;8330;-33.858;151.184;2023-08-06T03:02:32;18.10;99.90
16441;DHT22;8330;-33.858;151.184;2023-08-06T03:05:03;18.10;99.90
16441;DHT22;8330;-33.858;151.184;2023-08-06T03:07:37;18.00;99.90
16441;DHT22;8330;-33.858;151.184;2023-08-06T03:10:09;18.10;99.90
16441;DHT22;8330;-33.858;151.184;2023-08-06T03:12:41;17.90;99.90
16441;DHT22;8330;-33.858;151.184;2023-08-06T03:15:12;17.90;99.90
16441;DHT22;8330;-33.858;151.184;2023-08-06T03:17:43;17.70;99.90
16441;DHT22;8330;-33.858;151.184;2023-08-06T03:20:13;17.80;99.90
16441;DHT22;8330;-33.858;151.184;2023-08-06T03:22:47;17.80;99.90
16441;DHT22;8330;-33.858;151.184;2023-08-06T03:25:18;17.80;99.90
16441;DHT22;8330;-33.858;151.184;2023-08-06T03:27:48;17.90;99.90
16441;DHT22;8330;-33.858;151.184;2023-08-06T03:30:19;17.90;99.90
16441;DHT22;8330;-33.858;151.184;2023-08-06T03:32:50;17.90;99.90
16441;DHT22;8330;-33.858;151.184;2023-08-06T03:35:21;17.90;99.90
16441;DHT22;8330;-33.858;151.184;2023-08-06T03:37:55;17.90;99.90
16441;DHT22;8330;-33.858;151.184;2023-08-06T03:40:25;17.90;99.90
16441;DHT22;8330;-33.858;151.184;2023-08-06T03:42:56;17.90;99.90
16441;DHT22;8330;-33.858;151.184;2023-08-06T03:45:27;17.90;99.90
16441;DHT22;8330;-33.858;151.184;2023-08-06T03:47:58;18.00;99.90
16441;DHT22;8330;-33.858;151.184;2023-08-06T03:50:28;18.00;99.90
16441;DHT22;8330;-33.858;151.184;2023-08-06T03:53:01;18.10;99.90
16441;DHT22;8330;-33.858;151.184;2023-08-06T03:55:32;18.10;99.90
16441;DHT22;8330;-33.858;151.184;2023-08-06T03:58:03;18.20;99.90
16441;DHT22;8330;-33.858;151.184;2023-08-06T04:00:33;18.20;99.90
16441;DHT22;8330;-33.858;151.184;2023-08-06T04:03:04;18.30;99.90
16441;DHT22;8330;-33.858;151.184;2023-08-06T04:05:35;18.20;99.90
16441;DHT22;8330;-33.858;151.184;2023-08-06T04:08:08;18.20;99.90
16441;DHT22;8330;-33.858;151.184;2023-08-06T04:10:38;18.20;99.90
16441;DHT22;8330;-33.858;151.184;2023-08-06T04:13:09;18.20;99.90
16441;DHT22;8330;-33.858;151.184;2023-08-06T04:15:40;18.10;99.90
16441;DHT22;8330;-33.858;151.184;2023-08-06T04:18:11;18.20;99.90
16441;DHT22;8330;-33.858;151.184;2023-08-06T04:20:44;18.10;99.90
16441;DHT22;8330;-33.858;151.184;2023-08-06T04:23:19;18.10;99.90
16441;DHT22;8330;-33.858;151.184;2023-08-06T04:25:49;18.10;99.90
16441;DHT22;8330;-33.858;151.184;2023-08-06T04:28:21;18.10;99.90
16441;DHT22;8330;-33.858;151.184;2023-08-06T04:30:51;18.00;99.90
16441;DHT22;8330;-33.858;151.184;2023-08-06T04:33:23;17.90;99.90
16441;DHT22;8330;-33.858;151.184;2023-08-06T04:35:55;17.90;99.90
16441;DHT22;8330;-33.858;151.184;2023-08-06T04:38:29;17.90;99.90
16441;DHT22;8330;-33.858;151.184;2023-08-06T04:41:01;18.00;99.90
16441;DHT22;8330;-33.858;151.184;2023-08-06T04:43:32;17.90;99.90
16441;DHT22;8330;-33.858;151.184;2023-08-06T04:46:06;18.00;99.90
16441;DHT22;8330;-33.858;151.184;2023-08-06T04:48:37;18.00;99.90
16441;DHT22;8330;-33.858;151.184;2023-08-06T04:51:09;18.00;99.90
16441;DHT22;8330;-33.858;151.184;2023-08-06T04:53:43;17.80;99.90
16441;DHT22;8330;-33.858;151.184;2023-08-06T04:56:14;17.70;99.90
16441;DHT22;8330;-33.858;151.184;2023-08-06T04:58:44;17.70;99.90
16441;DHT22;8330;-33.858;151.184;2023-08-06T05:01:15;17.70;99.90
16441;DHT22;8330;-33.858;151.184;2023-08-06T05:03:47;17.70;99.90
16441;DHT22;8330;-33.858;151.184;2023-08-06T05:06:17;17.60;99.90
16441;DHT22;8330;-33.858;151.184;2023-08-06T05:08:50;17.60;99.90
16441;DHT22;8330;-33.858;151.184;2023-08-06T05:11:21;17.60;99.90
16441;DHT22;8330;-33.858;151.184;2023-08-06T05:13:52;17.60;99.90
16441;DHT22;8330;-33.858;151.184;2023-08-06T05:16:23;17.60;99.90
16441;DHT22;8330;-33.858;151.184;2023-08-06T05:18:54;17.70;99.90
16441;DHT22;8330;-33.858;151.184;2023-08-06T05:21:25;17.60;99.90
16441;DHT22;8330;-33.858;151.184;2023-08-06T05:23:59;17.60;99.90
16441;DHT22;8330;-33.858;151.184;2023-08-06T05:26:30;17.60;99.90
16441;DHT22;8330;-33.858;151.184;2023-08-06T05:29:01;17.60;99.90
16441;DHT22;8330;-33.858;151.184;2023-08-06T05:31:35;17.60;99.90
16441;DHT22;8330;-33.858;151.184;2023-08-06T05:34:07;17.60;99.90
16441;DHT22;8330;-33.858;151.184;2023-08-06T05:36:37;17.60;99.90
16441;DHT22;8330;-33.858;151.184;2023-08-06T05:39:11;17.60;99.90
16441;DHT22;8330;-33.858;151.184;2023-08-06T05:41:42;17.60;99.90
16441;DHT22;8330;-33.858;151.184;2023-08-06T05:44:13;17.60;99.90
16441;DHT22;8330;-33.858;151.184;2023-08-06T05:46:45;17.60;99.90
16441;DHT22;8330;-33.858;151.184;2023-08-06T05:49:19;17.60;99.90
16441;DHT22;8330;-33.858;151.184;2023-08-06T05:51:50;17.60;99.90
16441;DHT22;8330;-33.858;151.184;2023-08-06T05:54:24;17.60;99.90
16441;DHT22;8330;-33.858;151.184;2023-08-06T05:56:55;17.60;99.90
16441;DHT22;8330;-33.858;151.184;2023-08-06T05:59:26;17.60;99.90
16441;DHT22;8330;-33.858;151.184;2023-08-06T06:01:57;17.60;99.90
16441;DHT22;8330;-33.858;151.184;2023-08-06T06:04:28;17.60;99.90
16441;DHT22;8330;-33.858;151.184;2023-08-06T06:06:59;17.60;99.90
16441;DHT22;8330;-33.858;151.184;2023-08-06T06:09:32;17.60;99.90
16441;DHT22;8330;-33.858;151.184;2023-08-06T06:12:02;17.60;99.90
16441;DHT22;8330;-33.858;151.184;2023-08-06T06:14:34;17.50;99.90
16441;DHT22;8330;-33.858;151.184;2023-08-06T06:17:05;17.50;99.90
16441;DHT22;8330;-33.858;151.184;2023-08-06T06:19:36;17.50;99.90
16441;DHT22;8330;-33.858;151.184;2023-08-06T06:22:07;17.50;99.90
16441;DHT22;8330;-33.858;151.184;2023-08-06T06:24:40;17.50;99.90
16441;DHT22;8330;-33.858;151.184;2023-08-06T06:27:11;17.40;99.90
16441;DHT22;8330;-33.858;151.184;2023-08-06T06:29:42;17.50;99.90
16441;DHT22;8330;-33.858;151.184;2023-08-06T06:32:13;17.50;99.90
16441;DHT22;8330;-33.858;151.184;2023-08-06T06:34:43;17.50;99.90
16441;DHT22;8330;-33.858;151.184;2023-08-06T06:37:15;17.40;99.90
16441;DHT22;8330;-33.858;151.184;2023-08-06T06:39:49;17.40;99.90
16441;DHT22;8330;-33.858;151.184;2023-08-06T06:42:20;17.50;99.90
16441;DHT22;8330;-33.858;151.184;2023-08-06T06:44:52;17.50;99.90
16441;DHT22;8330;-33.858;151.184;2023-08-06T06:47:23;17.50;99.90
16441;DHT22;8330;-33.858;151.184;2023-08-06T06:49:54;17.60;99.90
16441;DHT22;8330;-33.858;151.184;2023-08-06T06:52:24;17.60;99.90
16441;DHT22;8330;-33.858;151.184;2023-08-06T06:54:57;17.60;99.90
16441;DHT22;8330;-33.858;151.184;2023-08-06T06:57:28;17.70;99.90
16441;DHT22;8330;-33.858;151.184;2023-08-06T07:00:00;17.60;99.90
16441;DHT22;8330;-33.858;151.184;2023-08-06T07:02:31;17.60;99.90
16441;DHT22;8330;-33.858;151.184;2023-08-06T07:05:05;17.60;99.90
16441;DHT22;8330;-33.858;151.184;2023-08-06T07:07:45;17.60;99.90
16441;DHT22;8330;-33.858;151.184;2023-08-06T07:10:18;17.50;99.90
16441;DHT22;8330;-33.858;151.184;2023-08-06T07:12:49;17.40;99.90
16441;DHT22;8330;-33.858;151.184;2023-08-06T07:15:20;17.40;99.90
16441;DHT22;8330;-33.858;151.184;2023-08-06T07:17:53;17.40;99.90
16441;DHT22;8330;-33.858;151.184;2023-08-06T07:20:23;17.30;99.90
16441;DHT22;8330;-33.858;151.184;2023-08-06T07:22:57;17.30;99.90
16441;DHT22;8330;-33.858;151.184;2023-08-06T07:25:29;17.20;99.90
16441;DHT22;8330;-33.858;151.184;2023-08-06T07:28:02;17.20;99.90
16441;DHT22;8330;-33.858;151.184;2023-08-06T07:30:32;17.10;99.90
16441;DHT22;8330;-33.858;151.184;2023-08-06T07:33:03;17.20;99.90
16441;DHT22;8330;-33.858;151.184;2023-08-06T07:35:34;17.20;99.90
16441;DHT22;8330;-33.858;151.184;2023-08-06T07:38:06;17.20;99.90
16441;DHT22;8330;-33.858;151.184;2023-08-06T07:40:40;17.20;99.90
16441;DHT22;8330;-33.858;151.184;2023-08-06T07:43:12;17.10;99.90
16441;DHT22;8330;-33.858;151.184;2023-08-06T07:45:43;17.10;99.90
16441;DHT22;8330;-33.858;151.184;2023-08-06T07:48:16;17.10;99.90
16441;DHT22;8330;-33.858;151.184;2023-08-06T07:50:50;17.00;99.90
16441;DHT22;8330;-33.858;151.184;2023-08-06T07:53:21;17.00;99.90
16441;DHT22;8330;-33.858;151.184;2023-08-06T07:55:56;17.00;99.90
16441;DHT22;8330;-33.858;151.184;2023-08-06T07:58:30;17.00;99.90
16441;DHT22;8330;-33.858;151.184;2023-08-06T08:01:03;17.00;99.90
16441;DHT22;8330;-33.858;151.184;2023-08-06T08:03:39;16.90;99.90
16441;DHT22;8330;-33.858;151.184;2023-08-06T08:06:13;16.90;99.90
16441;DHT22;8330;-33.858;151.184;2023-08-06T08:08:44;16.80;99.90
16441;DHT22;8330;-33.858;151.184;2023-08-06T08:11:17;16.90;99.90
16441;DHT22;8330;-33.858;151.184;2023-08-06T08:13:48;16.90;99.90
16441;DHT22;8330;-33.858;151.184;2023-08-06T08:16:19;16.80;99.90
16441;DHT22;8330;-33.858;151.184;2023-08-06T08:18:50;16.80;99.90
16441;DHT22;8330;-33.858;151.184;2023-08-06T08:21:20;16.80;99.90
16441;DHT22;8330;-33.858;151.184;2023-08-06T08:23:52;16.70;99.90
16441;DHT22;8330;-33.858;151.184;2023-08-06T08:26:24;16.80;99.90
16441;DHT22;8330;-33.858;151.184;2023-08-06T08:29:00;16.70;99.90
16441;DHT22;8330;-33.858;151.184;2023-08-06T08:31:38;16.80;99.90
16441;DHT22;8330;-33.858;151.184;2023-08-06T08:34:11;16.80;99.90
16441;DHT22;8330;-33.858;151.184;2023-08-06T08:36:42;16.80;99.90
16441;DHT22;8330;-33.858;151.184;2023-08-06T08:39:15;16.80;99.90
16441;DHT22;8330;-33.858;151.184;2023-08-06T08:41:48;16.80;99.90
16441;DHT22;8330;-33.858;151.184;2023-08-06T08:44:19;16.80;99.90
16441;DHT22;8330;-33.858;151.184;2023-08-06T08:46:57;16.70;99.90
16441;DHT22;8330;-33.858;151.184;2023-08-06T08:49:29;16.70;99.90
16441;DHT22;8330;-33.858;151.184;2023-08-06T08:52:03;16.70;99.90
16441;DHT22;8330;-33.858;151.184;2023-08-06T08:54:35;16.70;99.90
16441;DHT22;8330;-33.858;151.184;2023-08-06T08:57:09;16.70;99.90
16441;DHT22;8330;-33.858;151.184;2023-08-06T08:59:40;16.60;99.90
16441;DHT22;8330;-33.858;151.184;2023-08-06T09:02:13;16.70;99.90
16441;DHT22;8330;-33.858;151.184;2023-08-06T09:04:45;16.60;99.90
16441;DHT22;8330;-33.858;151.184;2023-08-06T09:07:19;16.60;99.90
16441;DHT22;8330;-33.858;151.184;2023-08-06T09:09:51;16.60;99.90
16441;DHT22;8330;-33.858;151.184;2023-08-06T09:12:24;16.60;99.90
16441;DHT22;8330;-33.858;151.184;2023-08-06T09:14:56;16.60;99.90
16441;DHT22;8330;-33.858;151.184;2023-08-06T09:17:27;16.60;99.90
16441;DHT22;8330;-33.858;151.184;2023-08-06T09:19:57;16.60;99.90
16441;DHT22;8330;-33.858;151.184;2023-08-06T09:22:34;16.60;99.90
16441;DHT22;8330;-33.858;151.184;2023-08-06T09:25:06;16.60;99.90
16441;DHT22;8330;-33.858;151.184;2023-08-06T09:27:41;16.60;99.90
16441;DHT22;8330;-33.858;151.184;2023-08-06T09:30:29;16.60;99.90
16441;DHT22;8330;-33.858;151.184;2023-08-06T09:33:01;16.70;99.90
16441;DHT22;8330;-33.858;151.184;2023-08-06T09:35:32;16.70;99.90
16441;DHT22;8330;-33.858;151.184;2023-08-06T09:38:12;16.60;99.90
16441;DHT22;8330;-33.858;151.184;2023-08-06T09:40:43;16.60;99.90
16441;DHT22;8330;-33.858;151.184;2023-08-06T09:43:18;16.60;99.90
16441;DHT22;8330;-33.858;151.184;2023-08-06T09:45:49;16.60;99.90
16441;DHT22;8330;-33.858;151.184;2023-08-06T09:48:20;16.60;99.90
16441;DHT22;8330;-33.858;151.184;2023-08-06T09:50:55;16.60;99.90
16441;DHT22;8330;-33.858;151.184;2023-08-06T09:53:27;16.60;99.90
16441;DHT22;8330;-33.858;151.184;2023-08-06T09:55:58;16.60;99.90
16441;DHT22;8330;-33.858;151.184;2023-08-06T09:58:32;16.60;99.90
16441;DHT22;8330;-33.858;151.184;2023-08-06T10:01:03;16.60;99.90
16441;DHT22;8330;-33.858;151.184;2023-08-06T10:03:35;16.60;99.90
16441;DHT22;8330;-33.858;151.184;2023-08-06T10:06:07;16.60;99.90
16441;DHT22;8330;-33.858;151.184;2023-08-06T10:08:39;16.50;99.90
16441;DHT22;8330;-33.858;151.184;2023-08-06T10:11:10;16.50;99.90
16441;DHT22;8330;-33.858;151.184;2023-08-06T10:13:45;16.50;99.90
16441;DHT22;8330;-33.858;151.184;2023-08-06T10:16:16;16.50;99.90
16441;DHT22;8330;-33.858;151.184;2023-08-06T10:18:49;16.50;99.90
16441;DHT22;8330;-33.858;151.184;2023-08-06T10:21:24;16.50;99.90
16441;DHT22;8330;-33.858;151.184;2023-08-06T10:23:58;16.50;99.90
16441;DHT22;8330;-33.858;151.184;2023-08-06T10:26:30;16.40;99.90
16441;DHT22;8330;-33.858;151.184;2023-08-06T10:29:04;16.40;99.90
16441;DHT22;8330;-33.858;151.184;2023-08-06T10:31:59;16.40;99.90
16441;DHT22;8330;-33.858;151.184;2023-08-06T10:34:54;16.50;99.90
16441;DHT22;8330;-33.858;151.184;2023-08-06T10:37:34;16.50;99.90
16441;DHT22;8330;-33.858;151.184;2023-08-06T10:40:08;16.50;99.90
16441;DHT22;8330;-33.858;151.184;2023-08-06T10:42:41;16.50;99.90
16441;DHT22;8330;-33.858;151.184;2023-08-06T10:45:29;16.50;99.90
16441;DHT22;8330;-33.858;151.184;2023-08-06T10:48:00;16.50;99.90
16441;DHT22;8330;-33.858;151.184;2023-08-06T10:50:31;16.50;99.90
16441;DHT22;8330;-33.858;151.184;2023-08-06T10:53:05;16.50;99.90
16441;DHT22;8330;-33.858;151.184;2023-08-06T10:55:36;16.40;99.90
16441;DHT22;8330;-33.858;151.184;2023-08-06T10:58:08;16.40;99.90
16441;DHT22;8330;-33.858;151.184;2023-08-06T11:00:42;16.40;99.90
16441;DHT22;8330;-33.858;151.184;2023-08-06T11:03:12;16.40;99.90
16441;DHT22;8330;-33.858;151.184;2023-08-06T11:05:49;16.40;99.90
16441;DHT22;8330;-33.858;151.184;2023-08-06T11:08:25;16.40;99.90
16441;DHT22;8330;-33.858;151.184;2023-08-06T11:10:58;16.40;99.90
16441;DHT22;8330;-33.858;151.184;2023-08-06T11:13:40;16.40;99.90
16441;DHT22;8330;-33.858;151.184;2023-08-06T11:16:14;16.40;99.90
16441;DHT22;8330;-33.858;151.184;2023-08-06T11:18:46;16.30;99.90
16441;DHT22;8330;-33.858;151.184;2023-08-06T11:21:20;16.30;99.90
16441;DHT22;8330;-33.858;151.184;2023-08-06T11:24:02;16.30;99.90
16441;DHT22;8330;-33.858;151.184;2023-08-06T11:26:33;16.20;99.90
16441;DHT22;8330;-33.858;151.184;2023-08-06T11:29:04;16.20;99.90
16441;DHT22;8330;-33.858;151.184;2023-08-06T11:31:37;16.20;99.90
16441;DHT22;8330;-33.858;151.184;2023-08-06T11:34:10;16.20;99.90
16441;DHT22;8330;-33.858;151.184;2023-08-06T11:36:42;16.20;99.90
16441;DHT22;8330;-33.858;151.184;2023-08-06T11:39:14;16.20;99.90
16441;DHT22;8330;-33.858;151.184;2023-08-06T11:41:44;16.20;99.90
16441;DHT22;8330;-33.858;151.184;2023-08-06T11:44:16;16.10;99.90
16441;DHT22;8330;-33.858;151.184;2023-08-06T11:46:55;16.10;99.90
16441;DHT22;8330;-33.858;151.184;2023-08-06T11:49:42;16.10;99.90
16441;DHT22;8330;-33.858;151.184;2023-08-06T11:52:21;16.10;99.90
16441;DHT22;8330;-33.858;151.184;2023-08-06T11:55:02;16.00;99.90
16441;DHT22;8330;-33.858;151.184;2023-08-06T11:57:34;16.00;99.90
16441;DHT22;8330;-33.858;151.184;2023-08-06T12:00:07;15.90;99.90
16441;DHT22;8330;-33.858;151.184;2023-08-06T12:02:44;15.80;99.90
16441;DHT22;8330;-33.858;151.184;2023-08-06T12:05:17;15.90;99.90
16441;DHT22;8330;-33.858;151.184;2023-08-06T12:07:49;15.80;99.90
16441;DHT22;8330;-33.858;151.184;2023-08-06T12:10:20;15.70;99.90
16441;DHT22;8330;-33.858;151.184;2023-08-06T12:12:51;15.70;99.90
16441;DHT22;8330;-33.858;151.184;2023-08-06T12:15:22;15.70;99.90
16441;DHT22;8330;-33.858;151.184;2023-08-06T12:17:57;15.60;99.90
16441;DHT22;8330;-33.858;151.184;2023-08-06T12:20:28;15.60;99.90
16441;DHT22;8330;-33.858;151.184;2023-08-06T12:22:59;15.60;99.90
16441;DHT22;8330;-33.858;151.184;2023-08-06T12:25:30;15.60;99.90
16441;DHT22;8330;-33.858;151.184;2023-08-06T12:28:01;15.50;99.90
16441;DHT22;8330;-33.858;151.184;2023-08-06T12:30:33;15.50;99.90
16441;DHT22;8330;-33.858;151.184;2023-08-06T12:33:06;15.50;99.90
16441;DHT22;8330;-33.858;151.184;2023-08-06T12:35:37;15.50;99.90
16441;DHT22;8330;-33.858;151.184;2023-08-06T12:38:08;15.50;99.90
16441;DHT22;8330;-33.858;151.184;2023-08-06T12:40:41;15.40;99.90
16441;DHT22;8330;-33.858;151.184;2023-08-06T12:43:13;15.40;99.90
16441;DHT22;8330;-33.858;151.184;2023-08-06T12:45:43;15.40;99.90
16441;DHT22;8330;-33.858;151.184;2023-08-06T12:48:16;15.40;99.90
16441;DHT22;8330;-33.858;151.184;2023-08-06T12:50:47;15.40;99.90
16441;DHT22;8330;-33.858;151.184;2023-08-06T12:53:18;15.30;99.90
16441;DHT22;8330;-33.858;151.184;2023-08-06T12:55:50;15.30;99.90
16441;DHT22;8330;-33.858;151.184;2023-08-06T12:58:22;15.30;99.90
16441;DHT22;8330;-33.858;151.184;2023-08-06T13:00:53;15.20;99.90
16441;DHT22;8330;-33.858;151.184;2023-08-06T13:03:25;15.10;99.90
16441;DHT22;8330;-33.858;151.184;2023-08-06T13:05:56;15.10;99.90
16441;DHT22;8330;-33.858;151.184;2023-08-06T13:08:27;15.10;99.90
16441;DHT22;8330;-33.858;151.184;2023-08-06T13:10:58;15.10;99.90
16441;DHT22;8330;-33.858;151.184;2023-08-06T13:13:29;15.10;99.90
16441;DHT22;8330;-33.858;151.184;2023-08-06T13:16:00;15.10;99.90
16441;DHT22;8330;-33.858;151.184;2023-08-06T13:18:33;15.10;99.90
16441;DHT22;8330;-33.858;151.184;2023-08-06T13:21:04;15.10;99.90
16441;DHT22;8330;-33.858;151.184;2023-08-06T13:23:35;15.00;99.90
16441;DHT22;8330;-33.858;151.184;2023-08-06T13:26:06;15.00;99.90
16441;DHT22;8330;-33.858;151.184;2023-08-06T13:28:36;15.00;99.90
16441;DHT22;8330;-33.858;151.184;2023-08-06T13:31:07;14.90;99.90
16441;DHT22;8330;-33.858;151.184;2023-08-06T13:33:40;14.90;99.90
16441;DHT22;8330;-33.858;151.184;2023-08-06T13:36:11;14.90;99.90
16441;DHT22;8330;-33.858;151.184;2023-08-06T13:38:42;14.90;99.90
16441;DHT22;8330;-33.858;151.184;2023-08-06T13:41:12;14.90;99.90
16441;DHT22;8330;-33.858;151.184;2023-08-06T13:43:43;14.80;99.90
16441;DHT22;8330;-33.858;151.184;2023-08-06T13:46:14;14.80;99.90
16441;DHT22;8330;-33.858;151.184;2023-08-06T13:48:48;14.80;99.90
16441;DHT22;8330;-33.858;151.184;2023-08-06T13:51:19;14.80;99.90
16441;DHT22;8330;-33.858;151.184;2023-08-06T13:53:50;14.80;99.90
16441;DHT22;8330;-33.858;151.184;2023-08-06T13:56:22;14.70;99.90
16441;DHT22;8330;-33.858;151.184;2023-08-06T13:58:53;14.70;99.90
16441;DHT22;8330;-33.858;151.184;2023-08-06T14:01:24;14.60;99.90
16441;DHT22;8330;-33.858;151.184;2023-08-06T14:03:56;14.60;99.90
16441;DHT22;8330;-33.858;151.184;2023-08-06T14:06:27;14.70;99.90
16441;DHT22;8330;-33.858;151.184;2023-08-06T14:08:58;14.60;99.90
16441;DHT22;8330;-33.858;151.184;2023-08-06T14:11:29;14.60;99.90
16441;DHT22;8330;-33.858;151.184;2023-08-06T14:14:00;14.50;99.90
16441;DHT22;8330;-33.858;151.184;2023-08-06T14:16:30;14.50;99.90
16441;DHT22;8330;-33.858;151.184;2023-08-06T14:19:03;14.50;99.90
16441;DHT22;8330;-33.858;151.184;2023-08-06T14:21:34;14.50;99.90
16441;DHT22;8330;-33.858;151.184;2023-08-06T14:24:05;14.40;99.90
16441;DHT22;8330;-33.858;151.184;2023-08-06T14:26:36;14.40;99.90
16441;DHT22;8330;-33.858;151.184;2023-08-06T14:29:07;14.40;99.90
16441;DHT22;8330;-33.858;151.184;2023-08-06T14:31:38;14.40;99.90
16441;DHT22;8330;-33.858;151.184;2023-08-06T14:34:10;14.40;99.90
16441;DHT22;8330;-33.858;151.184;2023-08-06T14:36:41;14.40;99.90
16441;DHT22;8330;-33.858;151.184;2023-08-06T14:39:12;14.40;99.90
16441;DHT22;8330;-33.858;151.184;2023-08-06T14:41:43;14.40;99.90
16441;DHT22;8330;-33.858;151.184;2023-08-06T14:44:13;14.30;99.90
16441;DHT22;8330;-33.858;151.184;2023-08-06T14:46:44;14.30;99.90
16441;DHT22;8330;-33.858;151.184;2023-08-06T14:49:17;14.20;99.90
16441;DHT22;8330;-33.858;151.184;2023-08-06T14:51:48;14.20;99.90
16441;DHT22;8330;-33.858;151.184;2023-08-06T14:54:18;14.20;99.90
16441;DHT22;8330;-33.858;151.184;2023-08-06T14:56:49;14.20;99.90
16441;DHT22;8330;-33.858;151.184;2023-08-06T14:59:20;14.10;99.90
16441;DHT22;8330;-33.858;151.184;2023-08-06T15:01:51;14.10;99.90
16441;DHT22;8330;-33.858;151.184;2023-08-06T15:04:23;14.20;99.90
16441;DHT22;8330;-33.858;151.184;2023-08-06T15:06:55;14.10;99.90
16441;DHT22;8330;-33.858;151.184;2023-08-06T15:09:26;14.10;99.90
16441;DHT22;8330;-33.858;151.184;2023-08-06T15:11:56;14.10;99.90
16441;DHT22;8330;-33.858;151.184;2023-08-06T15:14:27;14.10;99.90
16441;DHT22;8330;-33.858;151.184;2023-08-06T15:16:58;14.20;99.90
16441;DHT22;8330;-33.858;151.184;2023-08-06T15:19:30;14.20;99.90
16441;DHT22;8330;-33.858;151.184;2023-08-06T15:22:01;14.20;99.90
16441;DHT22;8330;-33.858;151.184;2023-08-06T15:24:32;14.10;99.90
16441;DHT22;8330;-33.858;151.184;2023-08-06T15:27:06;14.10;99.90
16441;DHT22;8330;-33.858;151.184;2023-08-06T15:29:37;14.00;99.90
16441;DHT22;8330;-33.858;151.184;2023-08-06T15:32:08;14.00;99.90
16441;DHT22;8330;-33.858;151.184;2023-08-06T15:34:43;14.00;99.90